M I D A S
Marine Information and Data Acquisition System
Tripno 1764 of the Zeeleeuw from 2009-07-14 06:55:09 to 2009-07-14 15:07:34
Back to CruiseResearch ActivitiesStationsMapUnderway DataData graphs

EquipmentUnitsComment
TimeDGPSUTC
LatitudeDGPSDM.mWGS84
LongitudeDGPSDM.mWGS84
HeadingGyrodeg 
SOGDGPSknotsSpeed over ground
COGDGPSdegCourse over ground
DepthEcho soundermeters200 kHz
Missing or incorrect values are displayed as -999
Navigation data collected by the RV Zeeleeuw from 2009-07-14 06:40:25 to 2009-07-14 15:14:00
                                                                                    Next 1000 lines
Time Latitude Longitude Heading SOG COG Depth
2009-07-14 06:40:35 51°13.663 2°55.96 129.5 -999 279 7.2
2009-07-14 06:40:40 51°13.663 2°55.96 129.8 -999 326 7.2
2009-07-14 06:40:45 51°13.663 2°55.96 129.7 -999 270 7.1
2009-07-14 06:40:50 51°13.663 2°55.961 129.5 -999 65 7.3
2009-07-14 06:40:55 51°13.663 2°55.961 129.4 -999 109 7.3
2009-07-14 06:41:00 51°13.663 2°55.961 129.4 0.1 103 -999
2009-07-14 06:41:05 51°13.663 2°55.961 129.3 0.1 110 7.2
2009-07-14 06:41:10 51°13.663 2°55.961 129.3 0.1 28 7.2
2009-07-14 06:41:15 51°13.663 2°55.961 129.2 0.1 28 7.2
2009-07-14 06:41:20 51°13.663 2°55.961 129 -999 199 -999
2009-07-14 06:41:26 51°13.663 2°55.961 129 -999 240 -999
2009-07-14 06:41:31 51°13.663 2°55.96 129 0.1 215 7.2
2009-07-14 06:41:36 51°13.663 2°55.96 129 0.1 221 7.3
2009-07-14 06:41:41 51°13.663 2°55.96 129.1 -999 252 7.2
2009-07-14 06:41:46 51°13.663 2°55.96 129.3 -999 307 -999
2009-07-14 06:41:51 51°13.663 2°55.96 129.3 -999 273 7.1
2009-07-14 06:41:56 51°13.663 2°55.96 129.5 -999 208 7.2
2009-07-14 06:42:01 51°13.663 2°55.96 129.6 -999 193 5.4
2009-07-14 06:42:06 51°13.663 2°55.96 129.7 -999 39 7.2
2009-07-14 06:42:10 51°13.663 2°55.96 129.7 -999 115 -999
2009-07-14 06:42:16 51°13.663 2°55.96 129.7 -999 86 5.5
2009-07-14 06:42:21 51°13.663 2°55.96 129.7 -999 62 7.2
2009-07-14 06:42:26 51°13.663 2°55.96 129.6 -999 48 5.4
2009-07-14 06:42:30 51°13.663 2°55.96 129.5 -999 118 7.3
2009-07-14 06:42:35 51°13.663 2°55.96 129.3 -999 76 7.3
2009-07-14 06:42:40 51°13.663 2°55.96 129.3 -999 153 -999
2009-07-14 06:42:46 51°13.663 2°55.96 129.1 -999 260 -999
2009-07-14 06:42:51 51°13.663 2°55.96 129.1 -999 227 7.1
2009-07-14 06:42:55 51°13.663 2°55.96 129.1 -999 332 7.1
2009-07-14 06:43:00 51°13.663 2°55.96 129.2 -999 290 7.2
2009-07-14 06:43:05 51°13.663 2°55.96 129.2 -999 271 7.4
2009-07-14 06:43:10 51°13.663 2°55.96 129.3 -999 187 7.2
2009-07-14 06:43:15 51°13.663 2°55.96 129.3 0.1 191 7.2
2009-07-14 06:43:20 51°13.663 2°55.96 129.3 -999 35 7.2
2009-07-14 06:43:25 51°13.663 2°55.96 129.3 -999 26 7.2
2009-07-14 06:43:30 51°13.663 2°55.96 129.3 -999 80 -999
2009-07-14 06:43:35 51°13.663 2°55.96 129.2 -999 81 7.1
2009-07-14 06:43:40 51°13.663 2°55.96 129 -999 82 7.2
2009-07-14 06:43:45 51°13.663 2°55.96 128.6 -999 105 -999
2009-07-14 06:43:50 51°13.663 2°55.96 127.9 -999 156 7.2
2009-07-14 06:43:55 51°13.663 2°55.96 127.1 -999 182 7.2
2009-07-14 06:44:00 51°13.663 2°55.96 126.4 -999 185 7.2
2009-07-14 06:44:05 51°13.663 2°55.96 125.8 -999 182 7.1
2009-07-14 06:44:10 51°13.663 2°55.96 125.3 -999 175 7.4
2009-07-14 06:44:15 51°13.663 2°55.96 124.7 -999 169 7.1
2009-07-14 06:44:20 51°13.663 2°55.96 124.1 -999 178 -999
2009-07-14 06:44:25 51°13.663 2°55.96 123.5 0.1 181 7.3
2009-07-14 06:44:30 51°13.663 2°55.96 122.9 0.1 194 7.5
2009-07-14 06:44:34 51°13.663 2°55.96 122.4 0.1 199 7.2
2009-07-14 06:44:40 51°13.663 2°55.96 121.8 0.1 196 7.1
2009-07-14 06:44:45 51°13.663 2°55.96 121.3 -999 216 7.2
2009-07-14 06:44:50 51°13.663 2°55.96 120.7 -999 189 7.2
2009-07-14 06:44:54 51°13.663 2°55.96 120 -999 207 7.2
2009-07-14 06:44:59 51°13.663 2°55.96 119.6 -999 216 7.2
2009-07-14 06:45:05 51°13.662 2°55.96 119 -999 203 7.1
2009-07-14 06:45:10 51°13.662 2°55.96 118.5 0.1 194 5.4
2009-07-14 06:45:15 51°13.662 2°55.96 117.9 -999 198 7.2
2009-07-14 06:45:19 51°13.662 2°55.96 117.6 -999 203 5.4
2009-07-14 06:45:25 51°13.662 2°55.96 116.9 0.1 193 7.2
2009-07-14 06:45:30 51°13.662 2°55.96 116.4 0.1 211 7.2
2009-07-14 06:45:34 51°13.662 2°55.96 115.7 0.1 203 7.2
2009-07-14 06:45:40 51°13.661 2°55.96 115.3 0.1 196 7.2
2009-07-14 06:45:44 51°13.661 2°55.96 114.6 0.1 194 7.2
2009-07-14 06:45:50 51°13.661 2°55.96 114 0.1 188 5.4
2009-07-14 06:45:55 51°13.661 2°55.96 113.7 0.1 184 7.2
2009-07-14 06:45:59 51°13.661 2°55.96 113 -999 220 5.4
2009-07-14 06:46:05 51°13.661 2°55.959 112.6 0.2 262 5.4
2009-07-14 06:46:10 51°13.662 2°55.958 112.3 0.6 296 7.3
2009-07-14 06:46:15 51°13.662 2°55.957 112 0.7 287 7.3
2009-07-14 06:46:20 51°13.663 2°55.955 112 1 294 7.3
2009-07-14 06:46:25 51°13.663 2°55.952 112 1.3 291 7.4
2009-07-14 06:46:30 51°13.664 2°55.949 112.5 1.5 296 7.4
2009-07-14 06:46:35 51°13.665 2°55.946 112.9 1.7 294 5.1
2009-07-14 06:46:40 51°13.666 2°55.941 113.2 1.9 294 -999
2009-07-14 06:46:46 51°13.668 2°55.936 113.2 2.2 294 -999
2009-07-14 06:46:51 51°13.669 2°55.931 112.7 2.4 295 -999
2009-07-14 06:46:57 51°13.671 2°55.925 112 2.6 292 -999
2009-07-14 06:47:03 51°13.673 2°55.918 110.8 2.7 291 -999
2009-07-14 06:47:08 51°13.674 2°55.912 109.6 2.9 291 -999
2009-07-14 06:47:13 51°13.675 2°55.906 109 2.8 289 -999
2009-07-14 06:47:18 51°13.677 2°55.9 109 2.8 290 -999
2009-07-14 06:47:23 51°13.678 2°55.894 108.9 2.9 287 -999
2009-07-14 06:47:29 51°13.68 2°55.887 108.6 2.9 290 -999
2009-07-14 06:47:34 51°13.681 2°55.88 108.4 3 287 -999
2009-07-14 06:47:38 51°13.682 2°55.875 108.4 3 289 -999
2009-07-14 06:47:43 51°13.684 2°55.869 108.4 3.1 288 -999
2009-07-14 06:47:49 51°13.686 2°55.861 108.3 3 291 -999
2009-07-14 06:47:54 51°13.687 2°55.855 107.9 3.1 288 -999
2009-07-14 06:47:58 51°13.688 2°55.85 107.2 3 289 -999
2009-07-14 06:48:03 51°13.689 2°55.843 106.6 3 287 -999
2009-07-14 06:48:09 51°13.691 2°55.836 106 3 288 -999
2009-07-14 06:48:14 51°13.692 2°55.829 105.2 3 287 -999
2009-07-14 06:48:18 51°13.693 2°55.824 104.4 3 288 -999
2009-07-14 06:48:23 51°13.694 2°55.818 103.6 3 286 -999
2009-07-14 06:48:28 51°13.695 2°55.811 102.5 3 286 -999
2009-07-14 06:48:33 51°13.696 2°55.805 101.5 2.9 285 -999
2009-07-14 06:48:38 51°13.697 2°55.799 100.5 2.9 284 -999
2009-07-14 06:48:43 51°13.698 2°55.793 99.1 2.7 285 -999
2009-07-14 06:48:48 51°13.698 2°55.788 97.2 2.6 281 -999
2009-07-14 06:48:53 51°13.699 2°55.782 95.4 2.5 282 -999
2009-07-14 06:48:58 51°13.7 2°55.777 94.1 2.3 280 14.4
2009-07-14 06:49:03 51°13.7 2°55.773 92.6 2 281 -999
2009-07-14 06:49:08 51°13.701 2°55.769 90.9 1.7 280 -999
2009-07-14 06:49:13 51°13.701 2°55.766 87.8 1.3 281 14.2
2009-07-14 06:49:18 51°13.701 2°55.763 85.4 1.1 278 14.5
2009-07-14 06:49:23 51°13.701 2°55.761 82.9 0.9 276 14.6
2009-07-14 06:49:27 51°13.702 2°55.76 80 0.6 285 14.4
2009-07-14 06:49:32 51°13.702 2°55.759 77.7 0.5 287 14.3
2009-07-14 06:49:37 51°13.702 2°55.759 74.5 0.3 295 14.3
2009-07-14 06:49:42 51°13.702 2°55.758 71 0.3 322 14.3
2009-07-14 06:49:47 51°13.702 2°55.758 68.2 0.2 341 14.3
2009-07-14 06:49:52 51°13.703 2°55.758 65.8 0.2 7 14.4
2009-07-14 06:49:57 51°13.703 2°55.758 62.9 0.3 11 14.5
2009-07-14 06:50:02 51°13.703 2°55.759 60 0.2 2 14.5
2009-07-14 06:50:06 51°13.703 2°55.758 57.5 0.2 278 14.5
2009-07-14 06:50:11 51°13.703 2°55.757 55.5 0.6 245 14.4
2009-07-14 06:50:16 51°13.703 2°55.756 53.2 0.7 238 14.4
2009-07-14 06:50:21 51°13.702 2°55.754 50.5 1 234 14.3
2009-07-14 06:50:26 51°13.701 2°55.752 48 1 230 14.3
2009-07-14 06:50:31 51°13.7 2°55.751 45.8 1 228 14.3
2009-07-14 06:50:35 51°13.699 2°55.75 44.3 0.9 229 14.3
2009-07-14 06:50:40 51°13.698 2°55.748 43 0.8 232 14.3
2009-07-14 06:50:45 51°13.698 2°55.747 42.1 0.4 233 14.3
2009-07-14 06:50:50 51°13.698 2°55.747 40.2 0.2 284 14.4
2009-07-14 06:50:55 51°13.698 2°55.747 37.6 0.1 332 14.3
2009-07-14 06:50:59 51°13.699 2°55.747 34.2 0.5 1 14.2
2009-07-14 06:51:05 51°13.7 2°55.747 30.5 0.6 14 14.1
2009-07-14 06:51:10 51°13.701 2°55.747 26.2 0.9 9 14.2
2009-07-14 06:51:15 51°13.703 2°55.748 21.2 1 11 14.2
2009-07-14 06:51:19 51°13.704 2°55.748 16.1 1.4 3 14
2009-07-14 06:51:24 51°13.706 2°55.748 11 1.6 5 14.2
2009-07-14 06:51:30 51°13.709 2°55.748 4.8 1.9 354 14.3
2009-07-14 06:51:34 51°13.711 2°55.747 358.6 2 352 14.1
2009-07-14 06:51:40 51°13.715 2°55.746 352.3 2.2 344 13.8
2009-07-14 06:51:44 51°13.718 2°55.744 346 2.4 341 13.9
2009-07-14 06:51:50 51°13.721 2°55.741 339.9 2.6 333 13.8
2009-07-14 06:51:54 51°13.724 2°55.738 334.6 3 330 13.6
2009-07-14 06:52:00 51°13.73 2°55.733 331.1 3.5 329 13.6
2009-07-14 06:52:05 51°13.734 2°55.728 329.1 3.9 326 13.5
2009-07-14 06:52:10 51°13.739 2°55.722 328 4.3 326 13.3
2009-07-14 06:52:15 51°13.745 2°55.716 327.9 4.6 325 12.8
2009-07-14 06:52:20 51°13.75 2°55.71 328 4.9 325 12.2
2009-07-14 06:52:25 51°13.756 2°55.704 328 5.2 325 11.9
2009-07-14 06:52:30 51°13.763 2°55.697 328 5.5 326 11.9
2009-07-14 06:52:35 51°13.769 2°55.689 328 5.7 326 12.2
2009-07-14 06:52:40 51°13.776 2°55.682 328.8 5.9 327 12.8
2009-07-14 06:52:45 51°13.783 2°55.675 330.2 6.2 328 12.8
2009-07-14 06:52:50 51°13.791 2°55.668 331.2 6.5 329 12.8
2009-07-14 06:52:55 51°13.799 2°55.66 331.8 6.6 330 12.7
2009-07-14 06:52:59 51°13.806 2°55.654 332 6.8 330 12.6
2009-07-14 06:53:05 51°13.816 2°55.645 333 7 332 12.6
2009-07-14 06:53:10 51°13.825 2°55.638 334.6 7.2 332 12.6
2009-07-14 06:53:15 51°13.834 2°55.631 335.4 7.3 333 12.4
2009-07-14 06:53:20 51°13.843 2°55.624 335.9 7.4 334 12.1
2009-07-14 06:53:25 51°13.852 2°55.616 336.1 7.5 334 12.3
2009-07-14 06:53:30 51°13.862 2°55.609 336.1 7.6 335 12.5
2009-07-14 06:53:35 51°13.871 2°55.602 336.1 7.7 334 12.4
2009-07-14 06:53:40 51°13.881 2°55.595 336.6 7.7 336 12.4
2009-07-14 06:53:45 51°13.891 2°55.587 336.9 7.7 334 12.4
2009-07-14 06:53:50 51°13.901 2°55.58 336.7 7.8 335 12.4
2009-07-14 06:53:54 51°13.909 2°55.574 336.4 7.9 334 12.4
2009-07-14 06:54:00 51°13.921 2°55.566 336.8 7.9 335 12.2
2009-07-14 06:54:05 51°13.931 2°55.558 336.9 8 335 12.4
2009-07-14 06:54:10 51°13.941 2°55.551 336.9 8 335 12.4
2009-07-14 06:54:14 51°13.949 2°55.545 337.6 8 336 12.4
2009-07-14 06:54:20 51°13.961 2°55.536 338.3 8 336 12.4
2009-07-14 06:54:25 51°13.971 2°55.529 337.8 8 335 12.4
2009-07-14 06:54:30 51°13.982 2°55.521 337 8.1 335 12.4
2009-07-14 06:54:34 51°13.99 2°55.515 337.3 8 336 12.4
2009-07-14 06:54:40 51°14.002 2°55.506 338 8 336 12.3
2009-07-14 06:54:45 51°14.012 2°55.499 337.7 8.1 335 12.1
2009-07-14 06:54:50 51°14.022 2°55.491 336.8 8.2 334 12.3
2009-07-14 06:54:55 51°14.032 2°55.483 336 8.2 333 12.4
2009-07-14 06:55:00 51°14.043 2°55.475 335.4 8.3 334 12.3
2009-07-14 06:55:04 51°14.051 2°55.468 335.2 8.4 333 12.2
2009-07-14 06:55:10 51°14.064 2°55.458 335.3 8.4 334 12.3
2009-07-14 06:55:14 51°14.072 2°55.451 336.1 8.5 334 12.3
2009-07-14 06:55:20 51°14.085 2°55.441 336.2 8.5 333 12.1
2009-07-14 06:55:24 51°14.093 2°55.434 335.5 8.6 333 12.1
2009-07-14 06:55:30 51°14.106 2°55.424 335.3 8.6 333 12.3
2009-07-14 06:55:35 51°14.117 2°55.415 335.7 8.7 334 12.2
2009-07-14 06:55:40 51°14.128 2°55.407 336.5 8.7 334 12.3
2009-07-14 06:55:45 51°14.138 2°55.398 336.3 8.7 333 12.3
2009-07-14 06:55:50 51°14.149 2°55.389 335.4 8.7 332 12.3
2009-07-14 06:55:55 51°14.16 2°55.379 334.2 8.7 331 12.2
2009-07-14 06:56:00 51°14.17 2°55.369 333.1 8.8 330 12.2
2009-07-14 06:56:05 51°14.181 2°55.359 331.9 8.8 329 12.2
2009-07-14 06:56:10 51°14.191 2°55.349 330.8 8.8 327 12.3
2009-07-14 06:56:14 51°14.199 2°55.34 329.7 8.8 326 12.2
2009-07-14 06:56:20 51°14.211 2°55.326 328.2 8.8 325 12.3
2009-07-14 06:56:25 51°14.221 2°55.314 326.3 8.9 323 12.3
2009-07-14 06:56:30 51°14.23 2°55.302 324.1 8.9 320 12.7
2009-07-14 06:56:34 51°14.238 2°55.291 321.7 8.9 319 12.3
2009-07-14 06:56:40 51°14.248 2°55.275 319.3 8.9 316 12.2
2009-07-14 06:56:45 51°14.257 2°55.261 317.4 8.9 315 12.2
2009-07-14 06:56:50 51°14.265 2°55.247 315.8 9 313 12.2
2009-07-14 06:56:54 51°14.272 2°55.235 314.6 9 313 12.3
2009-07-14 06:57:00 51°14.282 2°55.217 314.3 9 312 12.4
2009-07-14 06:57:05 51°14.29 2°55.202 313.3 9.1 310 12.3
2009-07-14 06:57:10 51°14.299 2°55.186 312.2 9.2 310 12.1
2009-07-14 06:57:14 51°14.306 2°55.174 311.8 9.3 310 12.1
2009-07-14 06:57:20 51°14.315 2°55.155 311.8 9.3 310 12.1
2009-07-14 06:57:24 51°14.322 2°55.142 311.8 9.4 310 12.2
2009-07-14 06:57:30 51°14.332 2°55.122 312.2 9.5 310 12.4
2009-07-14 06:57:34 51°14.339 2°55.11 312.2 9.5 309 12.3
2009-07-14 06:57:40 51°14.349 2°55.09 311.4 9.5 309 12.4
2009-07-14 06:57:44 51°14.355 2°55.077 310.6 9.5 308 12.4
2009-07-14 06:57:50 51°14.365 2°55.057 310.5 9.5 309 12.1
2009-07-14 06:57:54 51°14.372 2°55.044 311 9.6 310 11.8
2009-07-14 06:58:00 51°14.382 2°55.024 312 9.6 311 11.5
2009-07-14 06:58:05 51°14.392 2°55.009 314.5 9.7 314 11.3
2009-07-14 06:58:10 51°14.401 2°54.994 316.5 9.7 314 11.6
2009-07-14 06:58:15 51°14.411 2°54.979 316.9 9.8 315 11.6
2009-07-14 06:58:20 51°14.421 2°54.963 317.3 9.9 316 11.7
2009-07-14 06:58:25 51°14.431 2°54.948 318.7 9.9 318 11.7
2009-07-14 06:58:30 51°14.441 2°54.933 319.3 10 317 11.7
2009-07-14 06:58:34 51°14.449 2°54.921 318.8 10 316 11.7
2009-07-14 06:58:40 51°14.461 2°54.902 317.7 10.1 315 11.7
2009-07-14 06:58:45 51°14.471 2°54.885 316.5 10.4 314 11.7
2009-07-14 06:58:50 51°14.481 2°54.868 315.5 10.6 314 11.6
2009-07-14 06:58:54 51°14.489 2°54.855 315.7 10.7 315 11.7
2009-07-14 06:59:00 51°14.502 2°54.834 316.6 10.9 315 11.7
2009-07-14 06:59:05 51°14.513 2°54.817 317.5 11.1 316 11.7
2009-07-14 06:59:10 51°14.524 2°54.8 317.5 11.2 315 11.6
2009-07-14 06:59:14 51°14.533 2°54.786 317.3 11.3 316 11.4
2009-07-14 06:59:20 51°14.547 2°54.766 318.4 11.3 317 11.5
2009-07-14 06:59:25 51°14.559 2°54.749 318.8 11.3 317 11.3
2009-07-14 06:59:30 51°14.57 2°54.731 318.1 11.4 316 11.3
2009-07-14 06:59:34 51°14.579 2°54.718 318.2 11.4 318 11.2
2009-07-14 06:59:40 51°14.594 2°54.697 319.2 11.5 318 11.2
2009-07-14 06:59:45 51°14.606 2°54.681 320.2 11.5 320 11.1
2009-07-14 06:59:50 51°14.619 2°54.665 321.6 11.5 321 11.2
2009-07-14 06:59:55 51°14.631 2°54.65 322.8 11.5 322 11.1
2009-07-14 06:59:59 51°14.642 2°54.638 324.2 11.6 324 11.1
2009-07-14 07:00:05 51°14.658 2°54.621 325.7 11.6 326 11.1
2009-07-14 07:00:10 51°14.671 2°54.607 327.1 11.6 328 11.2
2009-07-14 07:00:15 51°14.685 2°54.594 329.3 11.6 328 11.2
2009-07-14 07:00:20 51°14.699 2°54.58 330.1 11.6 328 11.1
2009-07-14 07:00:25 51°14.712 2°54.565 328.3 11.6 325 11.2
2009-07-14 07:00:30 51°14.725 2°54.552 327 11.7 328 11.2
2009-07-14 07:00:35 51°14.739 2°54.538 327.8 11.7 328 11.1
2009-07-14 07:00:40 51°14.753 2°54.525 329.2 11.7 329 11.1
2009-07-14 07:00:45 51°14.767 2°54.511 330 11.6 329 11
2009-07-14 07:00:50 51°14.781 2°54.498 329.9 11.6 328 11
2009-07-14 07:00:54 51°14.791 2°54.487 329.1 11.6 327 11.1
2009-07-14 07:00:59 51°14.805 2°54.473 328.6 11.6 328 11.1
2009-07-14 07:01:05 51°14.822 2°54.458 329.9 11.6 330 10.9
2009-07-14 07:01:10 51°14.836 2°54.447 333.6 11.5 335 10.9
2009-07-14 07:01:14 51°14.848 2°54.438 335.4 11.6 334 10.9
2009-07-14 07:01:19 51°14.862 2°54.426 334 11.6 332 10.9
2009-07-14 07:01:25 51°14.879 2°54.413 334.2 11.6 335 10.9
2009-07-14 07:01:30 51°14.894 2°54.401 334.7 11.6 333 10.5
2009-07-14 07:01:34 51°14.905 2°54.393 335.1 11.6 335 10.4
2009-07-14 07:01:40 51°14.923 2°54.379 335.2 11.6 334 10.2
2009-07-14 07:01:44 51°14.934 2°54.37 335 11.6 334 10.1
2009-07-14 07:01:50 51°14.952 2°54.357 334.8 11.6 334 9.8
2009-07-14 07:01:54 51°14.963 2°54.348 334.6 11.6 334 9.8
2009-07-14 07:02:00 51°14.98 2°54.334 334.6 11.6 334 9.8
2009-07-14 07:02:04 51°14.992 2°54.325 334.4 11.6 334 9.4
2009-07-14 07:02:10 51°15.009 2°54.311 334.3 11.6 334 9.4
2009-07-14 07:02:15 51°15.024 2°54.3 334.3 11.6 334 9.4
2009-07-14 07:02:20 51°15.038 2°54.288 334.3 11.6 334 9.6
2009-07-14 07:02:25 51°15.053 2°54.277 334.1 11.6 333 10.2
2009-07-14 07:02:30 51°15.067 2°54.265 333.7 11.7 333 10.1
2009-07-14 07:02:35 51°15.081 2°54.253 333.4 11.6 332 10.1
2009-07-14 07:02:40 51°15.095 2°54.241 332.5 11.6 331 10.5
2009-07-14 07:02:44 51°15.107 2°54.231 332.3 11.5 331 10.9
2009-07-14 07:02:50 51°15.123 2°54.216 332.3 11.5 332 11.1
2009-07-14 07:02:54 51°15.135 2°54.207 332.7 11.5 332 11.6
2009-07-14 07:03:00 51°15.151 2°54.192 332.7 11.5 331 11.6
2009-07-14 07:03:05 51°15.165 2°54.18 332.7 11.5 332 11.8
2009-07-14 07:03:10 51°15.179 2°54.168 332.7 11.5 331 11.8
2009-07-14 07:03:14 51°15.191 2°54.158 332.8 11.4 332 11.9
2009-07-14 07:03:20 51°15.207 2°54.144 333 11.4 331 11.8
2009-07-14 07:03:25 51°15.221 2°54.132 332.8 11.4 331 11.8
2009-07-14 07:03:30 51°15.235 2°54.12 332.8 11.4 332 11.9
2009-07-14 07:03:34 51°15.246 2°54.11 332.8 11.4 331 12
2009-07-14 07:03:40 51°15.263 2°54.096 333 11.4 332 12
2009-07-14 07:03:45 51°15.277 2°54.084 334 11.4 333 11.8
2009-07-14 07:03:50 51°15.291 2°54.072 334.1 11.4 332 11.9
2009-07-14 07:03:54 51°15.302 2°54.063 333.6 11.4 332 11.9
2009-07-14 07:04:00 51°15.319 2°54.049 334 11.4 333 12
2009-07-14 07:04:04 51°15.33 2°54.04 334.3 11.4 333 12.1
2009-07-14 07:04:10 51°15.348 2°54.026 334.6 11.4 333 12.1
2009-07-14 07:04:14 51°15.359 2°54.017 334.7 11.4 333 12.1
2009-07-14 07:04:20 51°15.376 2°54.004 335.1 11.5 334 12.3
2009-07-14 07:04:24 51°15.387 2°53.995 335.3 11.5 333 12.2
2009-07-14 07:04:30 51°15.405 2°53.981 335.4 11.5 334 12.2
2009-07-14 07:04:34 51°15.416 2°53.972 335.4 11.5 334 12.2
2009-07-14 07:04:40 51°15.433 2°53.958 335.4 11.5 333 12.3
2009-07-14 07:04:45 51°15.447 2°53.947 335.3 11.5 333 12.3
2009-07-14 07:04:50 51°15.461 2°53.936 335.6 11.5 334 12.3
2009-07-14 07:04:55 51°15.475 2°53.924 335.3 11.5 332 12.3
2009-07-14 07:05:00 51°15.489 2°53.912 335.2 11.5 333 12.3
2009-07-14 07:05:05 51°15.504 2°53.9 335.2 11.5 332 12.3
2009-07-14 07:05:10 51°15.518 2°53.889 334.9 11.5 333 12.4
2009-07-14 07:05:14 51°15.529 2°53.88 335.3 11.5 333 12.3
2009-07-14 07:05:20 51°15.546 2°53.865 335 11.6 332 12.3
2009-07-14 07:05:25 51°15.561 2°53.853 334.1 11.6 332 12.2
2009-07-14 07:05:30 51°15.575 2°53.842 333.9 11.6 332 12.1
2009-07-14 07:05:34 51°15.586 2°53.832 334.1 11.6 333 12.1
2009-07-14 07:05:40 51°15.603 2°53.818 334.6 11.6 333 12.1
2009-07-14 07:05:45 51°15.618 2°53.806 333.9 11.6 332 12.1
2009-07-14 07:05:50 51°15.632 2°53.795 333.7 11.6 334 12.2
2009-07-14 07:05:54 51°15.644 2°53.786 334.4 11.7 334 12.2
2009-07-14 07:06:00 51°15.661 2°53.772 334.7 11.6 334 12
2009-07-14 07:06:05 51°15.676 2°53.761 334.8 11.6 335 12.1
2009-07-14 07:06:10 51°15.69 2°53.75 334.9 11.5 336 12.3
2009-07-14 07:06:14 51°15.702 2°53.743 338.3 11.6 341 12.1
2009-07-14 07:06:20 51°15.72 2°53.732 339.6 11.5 338 12.2
2009-07-14 07:06:25 51°15.735 2°53.725 341.1 11.5 344 11.8
2009-07-14 07:06:30 51°15.75 2°53.717 343.3 11.5 342 12.2
2009-07-14 07:06:35 51°15.766 2°53.71 344.4 11.5 344 12.4
2009-07-14 07:06:39 51°15.778 2°53.705 346 11.5 345 12.3
2009-07-14 07:06:45 51°15.797 2°53.698 347 11.5 345 12.3
2009-07-14 07:06:50 51°15.812 2°53.692 347.9 11.5 347 12.4
2009-07-14 07:06:55 51°15.828 2°53.686 348.5 11.5 347 12.5
2009-07-14 07:06:59 51°15.841 2°53.682 349 11.6 348 12.5
2009-07-14 07:07:05 51°15.86 2°53.676 349.8 11.6 348 12.5
2009-07-14 07:07:10 51°15.875 2°53.671 350.6 11.6 349 12.4
2009-07-14 07:07:14 51°15.888 2°53.667 350.7 11.6 348 12.2
2009-07-14 07:07:19 51°15.903 2°53.661 350.8 11.5 349 12.6
2009-07-14 07:07:24 51°15.919 2°53.654 348.7 11.5 344 12.7
2009-07-14 07:07:30 51°15.937 2°53.644 344.8 11.6 342 12.7
2009-07-14 07:07:34 51°15.949 2°53.638 343.9 11.5 342 12.6
2009-07-14 07:07:40 51°15.967 2°53.625 341 11.5 336 12.7
2009-07-14 07:07:45 51°15.981 2°53.616 338.8 11.6 338 12.6
2009-07-14 07:07:50 51°15.996 2°53.604 337.2 11.6 333 12.6
2009-07-14 07:07:55 51°16.01 2°53.593 335.4 11.6 334 12.7
2009-07-14 07:08:00 51°16.025 2°53.581 334.4 11.6 332 12.7
2009-07-14 07:08:05 51°16.039 2°53.569 333 11.6 332 12.6
2009-07-14 07:08:10 51°16.053 2°53.557 332.1 11.6 331 12.6
2009-07-14 07:08:15 51°16.067 2°53.544 331.3 11.7 330 12.6
2009-07-14 07:08:20 51°16.081 2°53.531 330.4 11.7 330 12.6
2009-07-14 07:08:25 51°16.095 2°53.518 330.1 11.7 329 12.7
2009-07-14 07:08:30 51°16.109 2°53.504 329.4 11.7 328 12.7
2009-07-14 07:08:35 51°16.122 2°53.49 328.2 11.7 328 12.8
2009-07-14 07:08:39 51°16.133 2°53.479 328.1 11.7 328 12.7
2009-07-14 07:08:45 51°16.15 2°53.463 328 11.7 328 12.7
2009-07-14 07:08:50 51°16.164 2°53.449 328.2 11.8 329 12.8
2009-07-14 07:08:55 51°16.178 2°53.436 328.6 11.8 329 12.7
2009-07-14 07:09:00 51°16.192 2°53.422 328.8 11.8 329 12.8
2009-07-14 07:09:05 51°16.206 2°53.409 328.9 11.8 329 12.8
2009-07-14 07:09:10 51°16.22 2°53.396 328.9 11.8 329 12.8
2009-07-14 07:09:15 51°16.234 2°53.382 328.7 11.8 329 12.9
2009-07-14 07:09:19 51°16.245 2°53.372 328.3 11.8 329 12.9
2009-07-14 07:09:25 51°16.262 2°53.355 328.3 11.8 329 13
2009-07-14 07:09:30 51°16.276 2°53.342 328.7 11.9 330 13
2009-07-14 07:09:35 51°16.29 2°53.328 328.9 12 329 13
2009-07-14 07:09:39 51°16.302 2°53.318 328.9 12 329 13
2009-07-14 07:09:44 51°16.316 2°53.304 328.8 12 329 12.9
2009-07-14 07:09:50 51°16.333 2°53.286 328.1 12.1 327 13
2009-07-14 07:09:54 51°16.344 2°53.275 327.6 12.1 327 13
2009-07-14 07:10:00 51°16.361 2°53.257 327.1 12.1 327 13
2009-07-14 07:10:05 51°16.375 2°53.242 326.7 12.1 326 13.1
2009-07-14 07:10:10 51°16.389 2°53.227 326.3 12.1 326 13.1
2009-07-14 07:10:14 51°16.4 2°53.215 326.4 12.1 327 12.9
2009-07-14 07:10:20 51°16.417 2°53.197 326.3 12.1 326 13
2009-07-14 07:10:25 51°16.432 2°53.185 328.8 12.1 332 13
2009-07-14 07:10:30 51°16.446 2°53.172 330.7 12.1 330 13
2009-07-14 07:10:35 51°16.461 2°53.16 331.9 12 333 12.9
2009-07-14 07:10:40 51°16.476 2°53.149 333.5 12 334 12.9
2009-07-14 07:10:45 51°16.491 2°53.138 334.3 12 335 13
2009-07-14 07:10:50 51°16.507 2°53.127 335.8 12.1 337 13
2009-07-14 07:10:55 51°16.522 2°53.116 336.1 12 335 12.9
2009-07-14 07:11:00 51°16.537 2°53.106 337.3 12.1 338 12.8
2009-07-14 07:11:05 51°16.553 2°53.094 337.2 12.1 335 12.9
2009-07-14 07:11:10 51°16.568 2°53.084 336.9 12.1 338 12.8
2009-07-14 07:11:15 51°16.583 2°53.073 337.6 12 336 12.6
2009-07-14 07:11:19 51°16.595 2°53.064 336.3 12 334 12.7
2009-07-14 07:11:25 51°16.613 2°53.051 336 12 336 12.6
2009-07-14 07:11:30 51°16.628 2°53.039 336.1 11.9 335 12.6
2009-07-14 07:11:35 51°16.643 2°53.028 336.1 11.9 335 12.5
2009-07-14 07:11:40 51°16.658 2°53.017 336 12 335 12.4
2009-07-14 07:11:45 51°16.673 2°53.006 336.1 11.9 335 12.3
2009-07-14 07:11:50 51°16.689 2°52.995 336.1 12 335 12.4
2009-07-14 07:11:54 51°16.701 2°52.986 336.1 12 335 12.2
2009-07-14 07:12:00 51°16.719 2°52.973 335.9 12 335 12.1
2009-07-14 07:12:05 51°16.734 2°52.961 335.9 12 335 12
2009-07-14 07:12:10 51°16.749 2°52.95 336.1 12 335 11.8
2009-07-14 07:12:14 51°16.761 2°52.941 335.8 11.9 334 11.6
2009-07-14 07:12:20 51°16.779 2°52.927 335.1 11.9 334 11.3
2009-07-14 07:12:25 51°16.793 2°52.915 334.6 11.9 334 10.8
2009-07-14 07:12:30 51°16.808 2°52.904 334.1 11.9 333 10.5
2009-07-14 07:12:34 51°16.819 2°52.894 333.7 11.8 333 10.3
2009-07-14 07:12:40 51°16.837 2°52.88 333.2 11.8 333 10.3
2009-07-14 07:12:45 51°16.852 2°52.868 333.2 11.8 333 10.3
2009-07-14 07:12:50 51°16.866 2°52.856 333.1 11.9 333 10.2
2009-07-14 07:12:54 51°16.878 2°52.847 333.3 11.9 334 10.2
2009-07-14 07:13:00 51°16.896 2°52.833 333.6 11.9 333 10.3
2009-07-14 07:13:05 51°16.911 2°52.821 333.6 11.9 334 10.4
2009-07-14 07:13:10 51°16.926 2°52.809 333.7 12 333 10.6
2009-07-14 07:13:15 51°16.94 2°52.797 333.4 11.9 334 10.5
2009-07-14 07:13:20 51°16.955 2°52.786 333.5 11.9 334 10.5
2009-07-14 07:13:24 51°16.967 2°52.776 333.8 12 334 10.5
2009-07-14 07:13:30 51°16.985 2°52.763 334 11.9 334 10.7
2009-07-14 07:13:34 51°16.997 2°52.754 334 11.9 334 10.8
2009-07-14 07:13:40 51°17.015 2°52.74 334 11.9 334 11
2009-07-14 07:13:45 51°17.03 2°52.728 333.6 12 333 11.1
2009-07-14 07:13:50 51°17.045 2°52.716 333.1 12 334 11.1
2009-07-14 07:13:55 51°17.06 2°52.705 333.2 12 334 11
2009-07-14 07:14:00 51°17.075 2°52.693 333.2 12 334 11
2009-07-14 07:14:05 51°17.089 2°52.681 333.2 12 333 10.9
2009-07-14 07:14:10 51°17.104 2°52.669 333.2 12 333 10.7
2009-07-14 07:14:15 51°17.119 2°52.657 333.1 12 333 10.7
2009-07-14 07:14:19 51°17.131 2°52.648 334 12 335 10.6
2009-07-14 07:14:25 51°17.149 2°52.634 334.5 12 334 10.5
2009-07-14 07:14:30 51°17.164 2°52.623 334.8 12 335 10.7
2009-07-14 07:14:35 51°17.179 2°52.611 335.5 12 335 10.8
2009-07-14 07:14:40 51°17.194 2°52.6 335.6 12 334 10.9
2009-07-14 07:14:45 51°17.21 2°52.589 335.6 12 335 10.9
2009-07-14 07:14:50 51°17.225 2°52.577 335.9 12 335 11
2009-07-14 07:14:55 51°17.24 2°52.566 336.2 12 335 11
2009-07-14 07:15:00 51°17.255 2°52.555 336.2 12 335 10.9
2009-07-14 07:15:05 51°17.27 2°52.544 335.8 12.1 335 11
2009-07-14 07:15:10 51°17.285 2°52.532 335.7 12 335 11.1
2009-07-14 07:15:15 51°17.3 2°52.521 335.9 12 335 11.2
2009-07-14 07:15:19 51°17.313 2°52.512 335.9 12.1 335 11.2
2009-07-14 07:15:25 51°17.331 2°52.499 336 12 335 11.2
2009-07-14 07:15:30 51°17.346 2°52.487 335.8 12 334 11.3
2009-07-14 07:15:35 51°17.361 2°52.475 335.3 12 333 11.3
2009-07-14 07:15:40 51°17.376 2°52.464 334.8 12 334 11
2009-07-14 07:15:45 51°17.39 2°52.452 334.8 12 334 11.3
2009-07-14 07:15:50 51°17.406 2°52.442 336.3 12 339 11.4
2009-07-14 07:15:55 51°17.421 2°52.432 339 11.9 339 11.4
2009-07-14 07:16:00 51°17.436 2°52.422 339.5 11.9 339 11.4
2009-07-14 07:16:05 51°17.452 2°52.414 341.2 12 342 11.5
2009-07-14 07:16:10 51°17.468 2°52.405 341.4 11.9 341 11.3
2009-07-14 07:16:14 51°17.481 2°52.399 343 11.9 344 11.4
2009-07-14 07:16:20 51°17.5 2°52.392 346.3 12 347 11.3
2009-07-14 07:16:25 51°17.516 2°52.386 347.8 12 347 11.4
2009-07-14 07:16:30 51°17.532 2°52.382 349.7 12 350 11.5
2009-07-14 07:16:34 51°17.546 2°52.378 350.9 12 349 11.5
2009-07-14 07:16:40 51°17.565 2°52.374 352.2 12 352 11.4
2009-07-14 07:16:45 51°17.582 2°52.37 353.3 12.1 352 11.4
2009-07-14 07:16:50 51°17.599 2°52.367 353.9 12.1 353 11.5
2009-07-14 07:16:54 51°17.612 2°52.364 354.6 12.1 352 11.3
2009-07-14 07:17:00 51°17.632 2°52.361 355.6 12.1 355 11.5
2009-07-14 07:17:05 51°17.649 2°52.358 355.8 12.1 353 11.2
2009-07-14 07:17:10 51°17.665 2°52.356 356.8 12.1 356 11.4
2009-07-14 07:17:15 51°17.682 2°52.353 357.2 12.1 355 11.2
2009-07-14 07:17:20 51°17.699 2°52.352 357.9 12.1 357 11.2
2009-07-14 07:17:25 51°17.715 2°52.35 358.4 12.1 356 11.3
2009-07-14 07:17:30 51°17.732 2°52.349 358.9 12.1 357 11.3
2009-07-14 07:17:34 51°17.746 2°52.348 359.1 12.1 358 11.4
2009-07-14 07:17:40 51°17.766 2°52.346 359.2 12.1 357 11.2
2009-07-14 07:17:45 51°17.783 2°52.345 359.3 12.1 358 11.3
2009-07-14 07:17:50 51°17.799 2°52.343 358.9 12.1 356 11.3
2009-07-14 07:17:55 51°17.816 2°52.342 358.8 12.1 357 11.3
2009-07-14 07:18:00 51°17.833 2°52.34 358.6 12.1 356 11.4
2009-07-14 07:18:05 51°17.85 2°52.338 358.3 12.1 356 11.4
2009-07-14 07:18:10 51°17.866 2°52.337 358.2 12.1 356 11.5
2009-07-14 07:18:15 51°17.883 2°52.335 357.9 12.1 356 11.4
2009-07-14 07:18:20 51°17.9 2°52.333 357.9 12.1 356 11.3
2009-07-14 07:18:25 51°17.917 2°52.33 357.8 12.1 356 11.5
2009-07-14 07:18:30 51°17.933 2°52.328 357.8 12.1 356 11.5
2009-07-14 07:18:34 51°17.947 2°52.327 358 12.1 356 11.4
2009-07-14 07:18:40 51°17.967 2°52.324 357.7 12.1 355 11.5
2009-07-14 07:18:45 51°17.984 2°52.322 357.6 12.1 356 11.5
2009-07-14 07:18:50 51°18 2°52.32 357.1 12.1 355 11.5
2009-07-14 07:18:54 51°18.014 2°52.318 356.9 12.1 355 11.6
2009-07-14 07:19:00 51°18.034 2°52.315 356.9 12.1 355 11.6
2009-07-14 07:19:05 51°18.05 2°52.312 356.9 12.1 354 11.5
2009-07-14 07:19:10 51°18.067 2°52.309 356.9 12.1 354 11.4
2009-07-14 07:19:14 51°18.08 2°52.307 356.6 12.1 354 11.7
2009-07-14 07:19:20 51°18.1 2°52.304 356.8 12.1 354 11.6
2009-07-14 07:19:25 51°18.117 2°52.301 356.7 12.2 354 11.6
2009-07-14 07:19:30 51°18.134 2°52.299 356.7 12.2 355 11.6
2009-07-14 07:19:34 51°18.147 2°52.297 356.9 12.2 354 11.7
2009-07-14 07:19:40 51°18.168 2°52.293 356.7 12.2 354 11.8
2009-07-14 07:19:45 51°18.184 2°52.29 356.6 12.2 354 11.7
2009-07-14 07:19:50 51°18.201 2°52.288 356.6 12.2 355 11.7
2009-07-14 07:19:54 51°18.215 2°52.286 356.5 12.2 354 11.8
2009-07-14 07:20:00 51°18.235 2°52.283 356.3 12.2 355 11.9
2009-07-14 07:20:04 51°18.249 2°52.28 356.5 12.2 354 11.9
2009-07-14 07:20:10 51°18.269 2°52.277 356.8 12.2 354 11.8
2009-07-14 07:20:14 51°18.282 2°52.275 356.6 12.3 354 11.9
2009-07-14 07:20:20 51°18.302 2°52.271 356.1 12.2 354 12
2009-07-14 07:20:25 51°18.319 2°52.269 356.3 12.2 355 12.1
2009-07-14 07:20:30 51°18.336 2°52.266 356.2 12.2 354 12.2
2009-07-14 07:20:35 51°18.353 2°52.265 357.4 12.2 357 12.1
2009-07-14 07:20:40 51°18.37 2°52.263 358.1 12.2 355 12
2009-07-14 07:20:44 51°18.383 2°52.261 357.9 12.2 356 12
2009-07-14 07:20:50 51°18.404 2°52.259 357.9 12.1 357 12.1
2009-07-14 07:20:55 51°18.42 2°52.257 358.3 12.1 356 12.2
2009-07-14 07:21:00 51°18.437 2°52.257 359.2 12.2 358 12.3
2009-07-14 07:21:05 51°18.454 2°52.255 0.1 12.1 357 12.2
2009-07-14 07:21:10 51°18.471 2°52.254 0.1 12.1 358 12.2
2009-07-14 07:21:14 51°18.484 2°52.254 0.3 12.1 358 12.6
2009-07-14 07:21:20 51°18.504 2°52.253 0.9 12.1 359 12.4
2009-07-14 07:21:25 51°18.521 2°52.253 1.8 12.1 359 12.4
2009-07-14 07:21:30 51°18.538 2°52.252 1.7 12 359 12.3
2009-07-14 07:21:34 51°18.551 2°52.253 2.3 12.1 -999 12.5
2009-07-14 07:21:40 51°18.571 2°52.252 2.4 12.1 -999 12.7
2009-07-14 07:21:45 51°18.588 2°52.253 2.7 12.1 -999 12.7
2009-07-14 07:21:50 51°18.605 2°52.252 2.6 12.1 -999 12.6
2009-07-14 07:21:54 51°18.618 2°52.253 2.8 12.2 -999 12.8
2009-07-14 07:22:00 51°18.639 2°52.252 2.3 12.2 358 12.9
2009-07-14 07:22:04 51°18.652 2°52.251 1.5 12.2 359 12.9
2009-07-14 07:22:10 51°18.672 2°52.25 0.9 12.2 358 12.9
2009-07-14 07:22:14 51°18.686 2°52.25 0.7 12.1 358 13
2009-07-14 07:22:20 51°18.706 2°52.249 0.4 12.2 358 13.1
2009-07-14 07:22:25 51°18.723 2°52.248 0.2 12.2 358 13.2
2009-07-14 07:22:30 51°18.74 2°52.247 0.5 12.1 358 13.3
2009-07-14 07:22:35 51°18.756 2°52.246 0.4 12.1 358 13.4
2009-07-14 07:22:39 51°18.77 2°52.245 0.4 12.1 358 13.3
2009-07-14 07:22:44 51°18.787 2°52.244 0.1 12.1 358 13.5
2009-07-14 07:22:50 51°18.807 2°52.243 0.4 12.1 359 13.7
2009-07-14 07:22:54 51°18.82 2°52.243 1.3 12.1 359 13.7
2009-07-14 07:23:00 51°18.84 2°52.242 0.9 12.1 358 13.6
2009-07-14 07:23:04 51°18.854 2°52.241 0.5 12.1 358 13.7
2009-07-14 07:23:10 51°18.874 2°52.241 0.5 12.1 359 13.9
2009-07-14 07:23:14 51°18.887 2°52.241 1.4 12.1 -999 14
2009-07-14 07:23:20 51°18.907 2°52.24 1.6 12.1 359 13.9
2009-07-14 07:23:25 51°18.924 2°52.24 1.8 12.1 -999 14.1
2009-07-14 07:23:30 51°18.941 2°52.24 2.3 12.1 -999 14.1
2009-07-14 07:23:34 51°18.954 2°52.24 2.4 12.1 -999 14.2
2009-07-14 07:23:39 51°18.971 2°52.24 2.4 12.1 -999 14.2
2009-07-14 07:23:45 51°18.991 2°52.24 2.4 12 -999 14.4
2009-07-14 07:23:50 51°19.008 2°52.239 2.4 12.1 359 14.4
2009-07-14 07:23:54 51°19.021 2°52.239 2.3 12.1 359 14.5
2009-07-14 07:23:59 51°19.038 2°52.239 2.3 12.1 -999 14.6
2009-07-14 07:24:05 51°19.058 2°52.239 2.3 12.1 359 14.7
2009-07-14 07:24:10 51°19.075 2°52.238 2.3 12.2 359 14.9
2009-07-14 07:24:14 51°19.088 2°52.238 2.3 12.1 359 14.9
2009-07-14 07:24:19 51°19.105 2°52.238 2.3 12.1 -999 15
2009-07-14 07:24:25 51°19.125 2°52.237 2.3 12.1 359 15
2009-07-14 07:24:30 51°19.142 2°52.237 2.2 12.2 -999 15.1
2009-07-14 07:24:34 51°19.155 2°52.237 2.3 12.1 359 15.2
2009-07-14 07:24:40 51°19.176 2°52.237 2.1 12.1 359 15.3
2009-07-14 07:24:45 51°19.193 2°52.237 2.1 12.1 359 15.5
2009-07-14 07:24:50 51°19.209 2°52.237 2.1 12.1 -999 15.4
2009-07-14 07:24:54 51°19.223 2°52.237 2.5 12.1 -999 15.3
2009-07-14 07:24:59 51°19.239 2°52.237 2.6 12.1 1 15.5
2009-07-14 07:25:04 51°19.256 2°52.238 3 12.1 2 15.6
2009-07-14 07:25:10 51°19.276 2°52.238 3 12.1 -999 15.8
2009-07-14 07:25:14 51°19.29 2°52.239 2.4 12.1 1 15.8
2009-07-14 07:25:19 51°19.307 2°52.239 2.3 12.1 -999 15.9
2009-07-14 07:25:24 51°19.323 2°52.238 1.3 12.1 359 15.8
2009-07-14 07:25:30 51°19.343 2°52.239 1.4 12 1 15.8
2009-07-14 07:25:34 51°19.357 2°52.239 1.6 12 359 15.9
2009-07-14 07:25:40 51°19.377 2°52.239 1.5 12 -999 16
2009-07-14 07:25:45 51°19.393 2°52.238 1.3 12 -999 16.1
2009-07-14 07:25:50 51°19.41 2°52.238 1.3 12 -999 16.1
2009-07-14 07:25:54 51°19.423 2°52.238 1.3 12 -999 16
2009-07-14 07:26:00 51°19.443 2°52.237 1 12 359 16.2
2009-07-14 07:26:05 51°19.46 2°52.236 0.7 12 358 16.2
2009-07-14 07:26:10 51°19.476 2°52.235 0.1 12 358 16.1
2009-07-14 07:26:14 51°19.49 2°52.234 359.6 12 357 16.2
2009-07-14 07:26:20 51°19.51 2°52.233 359.5 12 358 16.2
2009-07-14 07:26:25 51°19.526 2°52.232 359.7 11.9 358 16.2
2009-07-14 07:26:30 51°19.543 2°52.23 359.3 11.9 356 16.2
2009-07-14 07:26:34 51°19.556 2°52.23 -999 11.9 359 16.3
2009-07-14 07:26:39 51°19.572 2°52.229 0.3 12 357 16.4
2009-07-14 07:26:44 51°19.589 2°52.228 0.1 12 358 16.4
2009-07-14 07:26:50 51°19.609 2°52.227 0.2 12 358 16.6
2009-07-14 07:26:54 51°19.623 2°52.226 359.9 12 357 16.5
2009-07-14 07:27:00 51°19.642 2°52.225 359.9 12 358 16.5
2009-07-14 07:27:04 51°19.656 2°52.224 359.9 11.9 358 16.6
2009-07-14 07:27:10 51°19.675 2°52.222 -999 11.9 357 16.7
2009-07-14 07:27:14 51°19.689 2°52.221 359.9 12 357 16.6
2009-07-14 07:27:20 51°19.708 2°52.22 -999 11.9 358 16.7
2009-07-14 07:27:25 51°19.725 2°52.219 0.1 11.9 358 16.6
2009-07-14 07:27:30 51°19.742 2°52.218 0.1 12 358 16.7
2009-07-14 07:27:35 51°19.758 2°52.217 0.2 12 357 16.6
2009-07-14 07:27:39 51°19.772 2°52.216 0.2 12 358 16.6
2009-07-14 07:27:44 51°19.788 2°52.215 0.2 12 358 16.9
2009-07-14 07:27:50 51°19.808 2°52.214 0.1 12 358 16.8
2009-07-14 07:27:54 51°19.821 2°52.214 0.6 12 359 16.9
2009-07-14 07:28:00 51°19.841 2°52.213 0.7 12 358 16.8
2009-07-14 07:28:05 51°19.858 2°52.213 0.8 12 359 16.9
2009-07-14 07:28:10 51°19.875 2°52.212 0.9 12 358 16.9
2009-07-14 07:28:14 51°19.888 2°52.211 0.9 12.1 359 16.9
2009-07-14 07:28:20 51°19.908 2°52.211 1.1 12 359 16.8
2009-07-14 07:28:25 51°19.925 2°52.21 0.9 12 358 16.9
2009-07-14 07:28:30 51°19.941 2°52.209 0.6 12.1 359 16.8
2009-07-14 07:28:34 51°19.955 2°52.209 1.3 12.1 -999 17
2009-07-14 07:28:40 51°19.975 2°52.209 1.9 12.1 -999 17
2009-07-14 07:28:45 51°19.992 2°52.209 2.4 12.1 -999 17
2009-07-14 07:28:50 51°20.009 2°52.209 2.7 12.1 -999 17
2009-07-14 07:28:54 51°20.022 2°52.209 2.6 12.1 359 16.9
2009-07-14 07:28:59 51°20.039 2°52.208 1.8 12.1 359 17
2009-07-14 07:29:04 51°20.056 2°52.208 1.9 12.1 -999 17
2009-07-14 07:29:10 51°20.076 2°52.208 2.4 12.2 -999 16.9
2009-07-14 07:29:14 51°20.09 2°52.208 2.4 12.2 -999 16.9
2009-07-14 07:29:19 51°20.106 2°52.207 1.9 12.2 358 16.8
2009-07-14 07:29:24 51°20.123 2°52.207 1.2 12.2 359 16.5
2009-07-14 07:29:30 51°20.144 2°52.206 0.7 12.2 358 16.7
2009-07-14 07:29:34 51°20.157 2°52.205 0.6 12.2 359 16.5
2009-07-14 07:29:40 51°20.177 2°52.204 0.7 12.1 358 16.4
2009-07-14 07:29:45 51°20.194 2°52.203 0.6 12.1 358 16.2
2009-07-14 07:29:50 51°20.211 2°52.202 0.2 12.1 358 16
2009-07-14 07:29:55 51°20.228 2°52.203 1 12.1 1 15.8
2009-07-14 07:29:59 51°20.241 2°52.203 1.9 12.1 -999 15.7
2009-07-14 07:30:04 51°20.258 2°52.203 2.1 12.1 1 15.7
2009-07-14 07:30:10 51°20.278 2°52.203 2.3 12.1 1 15.6
2009-07-14 07:30:14 51°20.291 2°52.204 2.8 12.1 1 15.7
2009-07-14 07:30:20 51°20.311 2°52.203 2 12.1 -999 15.6
2009-07-14 07:30:25 51°20.328 2°52.203 1.5 12.1 359 15.5
2009-07-14 07:30:30 51°20.345 2°52.203 0.8 12 359 15.6
2009-07-14 07:30:34 51°20.358 2°52.202 0.8 12 359 15.4
2009-07-14 07:30:39 51°20.375 2°52.202 0.7 12 359 15.4
2009-07-14 07:30:45 51°20.394 2°52.2 0.2 11.9 358 15
2009-07-14 07:30:50 51°20.411 2°52.2 0.1 12 358 14.8
2009-07-14 07:30:54 51°20.425 2°52.198 -999 12 357 15.2
2009-07-14 07:31:00 51°20.445 2°52.197 359.9 12 359 15.4
2009-07-14 07:31:05 51°20.461 2°52.196 0.3 11.9 358 15.2
2009-07-14 07:31:10 51°20.478 2°52.196 0.5 11.9 359 15.1
2009-07-14 07:31:14 51°20.491 2°52.195 0.5 12 358 15.4
2009-07-14 07:31:20 51°20.511 2°52.195 1 12 -999 15.5
2009-07-14 07:31:25 51°20.527 2°52.195 1.8 11.9 -999 15.7
2009-07-14 07:31:30 51°20.544 2°52.195 2 12 -999 15.3
2009-07-14 07:31:35 51°20.561 2°52.195 2.3 11.9 -999 14.1
2009-07-14 07:31:39 51°20.574 2°52.194 2.3 11.9 -999 15
2009-07-14 07:31:44 51°20.59 2°52.194 2.4 12 -999 15.3
2009-07-14 07:31:50 51°20.61 2°52.195 2.7 11.9 -999 15.2
2009-07-14 07:31:54 51°20.624 2°52.195 3 12 1 15.3
2009-07-14 07:32:00 51°20.643 2°52.195 3 12 -999 15.1
2009-07-14 07:32:04 51°20.657 2°52.195 2.7 11.9 -999 15.1
2009-07-14 07:32:10 51°20.676 2°52.194 2 12 359 15
2009-07-14 07:32:15 51°20.693 2°52.194 1.2 12 358 15
2009-07-14 07:32:20 51°20.71 2°52.193 0.9 12 359 15
2009-07-14 07:32:25 51°20.727 2°52.192 0.9 12 358 14.9
2009-07-14 07:32:30 51°20.743 2°52.191 0.8 12 358 14.9
2009-07-14 07:32:34 51°20.757 2°52.191 1 12 359 14.8
2009-07-14 07:32:40 51°20.777 2°52.19 1.6 12 359 14.9
2009-07-14 07:32:45 51°20.793 2°52.19 2 12 -999 14.9
2009-07-14 07:32:50 51°20.81 2°52.19 2.2 12 359 14.8
2009-07-14 07:32:54 51°20.823 2°52.19 1.6 11.9 358 14.9
2009-07-14 07:32:59 51°20.84 2°52.189 1.1 11.9 358 14.9
2009-07-14 07:33:05 51°20.86 2°52.188 0.7 11.9 358 15.1
2009-07-14 07:33:10 51°20.876 2°52.187 0.5 11.9 358 15.2
2009-07-14 07:33:14 51°20.89 2°52.186 0.5 12 358 15.3
2009-07-14 07:33:20 51°20.91 2°52.185 0.6 12 359 15.3
2009-07-14 07:33:25 51°20.926 2°52.185 1.5 12 359 15.4
2009-07-14 07:33:30 51°20.943 2°52.185 2 12 -999 15.6
2009-07-14 07:33:34 51°20.956 2°52.185 2.3 12 -999 15.7
2009-07-14 07:33:40 51°20.976 2°52.184 1.7 12 359 15.7
2009-07-14 07:33:45 51°20.993 2°52.183 1.3 12 359 15.9
2009-07-14 07:33:50 51°21.01 2°52.182 0.8 12 358 16.1
2009-07-14 07:33:55 51°21.026 2°52.182 0.8 12 359 16.4
2009-07-14 07:33:59 51°21.039 2°52.182 1.6 12 359 16.4
2009-07-14 07:34:04 51°21.056 2°52.181 1.5 12 359 16.6
2009-07-14 07:34:10 51°21.076 2°52.182 2 12 -999 16.6
2009-07-14 07:34:14 51°21.089 2°52.181 2.1 12 359 16.7
2009-07-14 07:34:20 51°21.109 2°52.181 1.4 12 359 17
2009-07-14 07:34:24 51°21.123 2°52.18 0.8 12 358 16.9
2009-07-14 07:34:30 51°21.143 2°52.179 0.7 12 359 17.1
2009-07-14 07:34:35 51°21.159 2°52.179 1.5 12 359 17.2
2009-07-14 07:34:40 51°21.176 2°52.179 1.7 12 359 17.4
2009-07-14 07:34:45 51°21.192 2°52.178 1.5 12 359 17.4
2009-07-14 07:34:50 51°21.209 2°52.178 0.8 11.9 359 17.6
2009-07-14 07:34:54 51°21.222 2°52.177 0.6 11.9 358 17.9
2009-07-14 07:35:00 51°21.242 2°52.176 0.4 12 358 18.2
2009-07-14 07:35:05 51°21.259 2°52.175 0.2 12 358 18.3
2009-07-14 07:35:10 51°21.276 2°52.173 0.1 12 358 18.5
2009-07-14 07:35:14 51°21.289 2°52.173 0.1 12 358 18.6
2009-07-14 07:35:20 51°21.309 2°52.172 0.2 12 358 18.8
2009-07-14 07:35:25 51°21.325 2°52.171 0.8 12 358 18.8
2009-07-14 07:35:30 51°21.342 2°52.17 1.3 12 359 19
2009-07-14 07:35:34 51°21.355 2°52.17 1.1 12 357 19.2
2009-07-14 07:35:40 51°21.375 2°52.169 0.9 12 358 19.4
2009-07-14 07:35:45 51°21.392 2°52.168 0.8 12.1 358 19.7
2009-07-14 07:35:50 51°21.409 2°52.166 0.2 12.1 358 19.7
2009-07-14 07:35:54 51°21.422 2°52.165 0.6 12.1 358 19.9
2009-07-14 07:36:00 51°21.442 2°52.164 0.6 12.1 358 20.2
2009-07-14 07:36:05 51°21.459 2°52.163 0.6 12.1 358 20.5
2009-07-14 07:36:10 51°21.475 2°52.163 1.1 12.1 359 20.7
2009-07-14 07:36:15 51°21.492 2°52.162 1.7 12.1 359 20.8
2009-07-14 07:36:20 51°21.509 2°52.161 1.5 12.1 358 21.1
2009-07-14 07:36:25 51°21.526 2°52.161 1.4 12.1 -999 21.3
2009-07-14 07:36:30 51°21.543 2°52.161 2.3 12.1 -999 21.5
2009-07-14 07:36:35 51°21.559 2°52.161 2.3 12.1 359 21.5
2009-07-14 07:36:40 51°21.576 2°52.16 1.9 12.1 359 22
2009-07-14 07:36:44 51°21.589 2°52.159 1.3 12 358 21.9
2009-07-14 07:36:50 51°21.609 2°52.159 1 12.1 359 22.1
2009-07-14 07:36:54 51°21.623 2°52.158 1.2 12.1 359 22.4
2009-07-14 07:37:00 51°21.643 2°52.157 1.3 12.1 358 22.7
2009-07-14 07:37:05 51°21.659 2°52.156 0.8 12.1 358 23
2009-07-14 07:37:10 51°21.676 2°52.156 1.2 12.1 -999 22.9
2009-07-14 07:37:14 51°21.69 2°52.156 1.9 12.1 359 23
2009-07-14 07:37:20 51°21.71 2°52.155 2.1 12.1 -999 23.2
2009-07-14 07:37:25 51°21.727 2°52.155 1.7 12.1 359 23.3
2009-07-14 07:37:30 51°21.744 2°52.155 1.3 12.1 -999 23.6
2009-07-14 07:37:34 51°21.757 2°52.155 2.3 12.2 1 23.8
2009-07-14 07:37:39 51°21.774 2°52.156 2.6 12.2 1 24
2009-07-14 07:37:45 51°21.794 2°52.157 2.8 12.2 2 24
2009-07-14 07:37:50 51°21.811 2°52.157 2.2 12.2 -999 24.1
2009-07-14 07:37:54 51°21.825 2°52.157 1.7 12.3 1 24.2
2009-07-14 07:37:59 51°21.842 2°52.158 2.2 12.3 2 24.5
2009-07-14 07:38:05 51°21.862 2°52.159 2.2 12.3 2 24.5
2009-07-14 07:38:10 51°21.879 2°52.16 1.8 12.3 1 24.6
2009-07-14 07:38:14 51°21.893 2°52.16 1.2 12.3 1 24.6
2009-07-14 07:38:19 51°21.91 2°52.16 0.6 12.2 359 24.6
2009-07-14 07:38:24 51°21.927 2°52.159 0.1 12.2 -999 24.4
2009-07-14 07:38:30 51°21.947 2°52.159 0.1 12.2 -999 24.8
2009-07-14 07:38:34 51°21.961 2°52.159 1.4 12.2 1 24.7
2009-07-14 07:38:40 51°21.981 2°52.159 1.5 12.2 -999 24.8
2009-07-14 07:38:45 51°21.998 2°52.16 1.6 12.2 1 24.6
2009-07-14 07:38:50 51°22.015 2°52.16 1.5 12.2 -999 24.4
2009-07-14 07:38:55 51°22.032 2°52.16 1.1 12.3 -999 24.6
2009-07-14 07:38:59 51°22.046 2°52.16 1.5 12.3 1 24.4
2009-07-14 07:39:04 51°22.063 2°52.161 2 12.3 2 24.3
2009-07-14 07:39:10 51°22.083 2°52.161 1.9 12.3 1 24.2
2009-07-14 07:39:14 51°22.097 2°52.161 1 12.3 -999 24.2
2009-07-14 07:39:20 51°22.117 2°52.162 0.8 12.3 -999 24.2
2009-07-14 07:39:25 51°22.134 2°52.161 0.7 12.3 -999 24.2
2009-07-14 07:39:30 51°22.151 2°52.162 0.6 12.3 1 24.1
2009-07-14 07:39:34 51°22.165 2°52.162 1.5 12.3 1 23.5
2009-07-14 07:39:40 51°22.185 2°52.163 1.6 12.3 1 24.1
2009-07-14 07:39:45 51°22.203 2°52.163 1.5 12.3 1 24.2
2009-07-14 07:39:50 51°22.22 2°52.163 0.8 12.3 -999 24.2
2009-07-14 07:39:54 51°22.233 2°52.163 0.8 12.3 1 24
2009-07-14 07:40:00 51°22.254 2°52.163 1.2 12.3 -999 24.3
2009-07-14 07:40:05 51°22.271 2°52.164 1.7 12.3 1 24.4
2009-07-14 07:40:10 51°22.288 2°52.164 1.7 12.3 -999 24.3
2009-07-14 07:40:14 51°22.301 2°52.165 2.6 12.3 3 24.1
2009-07-14 07:40:19 51°22.318 2°52.165 2.8 12.2 1 24.1
2009-07-14 07:40:25 51°22.338 2°52.166 2.1 12.2 1 23.9
2009-07-14 07:40:30 51°22.356 2°52.166 1.7 12.2 -999 23.9
2009-07-14 07:40:34 51°22.369 2°52.166 1.6 12.2 -999 23.7
2009-07-14 07:40:39 51°22.386 2°52.167 1.9 12.2 1 23.5
2009-07-14 07:40:44 51°22.403 2°52.167 2.1 12.2 1 23.6
2009-07-14 07:40:50 51°22.423 2°52.167 2.3 12.1 1 23.4
2009-07-14 07:40:54 51°22.437 2°52.167 2.3 12.1 1 23.4
2009-07-14 07:41:00 51°22.457 2°52.169 2.4 12.1 1 23.2
2009-07-14 07:41:04 51°22.47 2°52.169 2.6 12.1 1 23.3
2009-07-14 07:41:10 51°22.49 2°52.17 2.6 12.1 1 23.5
2009-07-14 07:41:15 51°22.507 2°52.17 2.7 12.1 -999 23.3
2009-07-14 07:41:20 51°22.523 2°52.17 2.3 12 -999 23.2
2009-07-14 07:41:25 51°22.54 2°52.17 2.2 12 -999 23.3
2009-07-14 07:41:30 51°22.557 2°52.169 1.9 12 359 23.2
2009-07-14 07:41:35 51°22.573 2°52.169 1 12.1 359 23.1
2009-07-14 07:41:40 51°22.59 2°52.169 0.9 12.1 359 23.3
2009-07-14 07:41:45 51°22.607 2°52.169 1.7 12.1 1 23.3
2009-07-14 07:41:50 51°22.624 2°52.169 2 12.1 -999 23.5
2009-07-14 07:41:54 51°22.637 2°52.17 1.5 12.2 1 23.6
2009-07-14 07:42:00 51°22.657 2°52.17 1.8 12.1 -999 23.3
2009-07-14 07:42:05 51°22.674 2°52.17 1.9 12.1 -999 23.5
2009-07-14 07:42:10 51°22.691 2°52.17 1.7 12.1 -999 23.4
2009-07-14 07:42:14 51°22.704 2°52.17 1.6 12.1 -999 23.7
2009-07-14 07:42:19 51°22.721 2°52.17 1.5 12.1 1 23.6
2009-07-14 07:42:25 51°22.741 2°52.17 1.8 12.1 1 23.7
2009-07-14 07:42:30 51°22.758 2°52.171 2.1 12.1 -999 23.3
2009-07-14 07:42:34 51°22.771 2°52.17 0.8 12.1 359 23.4
2009-07-14 07:42:40 51°22.791 2°52.17 0.8 12.1 1 23.5
2009-07-14 07:42:45 51°22.808 2°52.17 1.5 12.1 -999 23.3
2009-07-14 07:42:50 51°22.825 2°52.171 1.8 12.2 1 23.2
2009-07-14 07:42:55 51°22.842 2°52.171 1.7 12.2 -999 23.3
2009-07-14 07:42:59 51°22.855 2°52.171 1.6 12.1 1 23
2009-07-14 07:43:04 51°22.872 2°52.171 1.8 12.2 1 23.4
2009-07-14 07:43:10 51°22.893 2°52.172 2.3 12.1 1 23.4
2009-07-14 07:43:14 51°22.906 2°52.172 2 12.1 -999 23.7
2009-07-14 07:43:19 51°22.923 2°52.172 1.3 12.1 -999 23.7
2009-07-14 07:43:24 51°22.94 2°52.171 0.8 12.1 359 23.6
2009-07-14 07:43:30 51°22.96 2°52.171 0.2 12.2 359 24
2009-07-14 07:43:34 51°22.973 2°52.171 0.3 12.2 359 23.9
2009-07-14 07:43:40 51°22.994 2°52.17 -999 12.2 358 23.4
2009-07-14 07:43:45 51°23.011 2°52.169 359.5 12.2 358 23.7
2009-07-14 07:43:50 51°23.028 2°52.168 359.5 12.2 358 23.7
2009-07-14 07:43:54 51°23.041 2°52.167 359.3 12.2 358 23
2009-07-14 07:44:00 51°23.061 2°52.167 0.1 12.1 -999 23.1
2009-07-14 07:44:05 51°23.078 2°52.166 0.3 12.2 358 22.8
2009-07-14 07:44:10 51°23.095 2°52.166 0.4 12.2 -999 22.2
2009-07-14 07:44:14 51°23.108 2°52.165 0.4 12.2 359 22.1
2009-07-14 07:44:20 51°23.128 2°52.165 0.7 12.2 -999 23.3
2009-07-14 07:44:25 51°23.145 2°52.165 1.5 12.2 -999 23.8
2009-07-14 07:44:30 51°23.162 2°52.164 1 12.2 359 23.6
2009-07-14 07:44:34 51°23.176 2°52.164 0.5 12.2 359 23.6
2009-07-14 07:44:39 51°23.193 2°52.164 0.6 12.2 -999 22.3
2009-07-14 07:44:45 51°23.213 2°52.164 1.3 12.3 -999 22.6
2009-07-14 07:44:50 51°23.23 2°52.164 1.2 12.3 -999 22.5
2009-07-14 07:44:54 51°23.244 2°52.164 1.3 12.3 1 19.9
2009-07-14 07:44:59 51°23.261 2°52.165 2.1 12.3 1 21
2009-07-14 07:45:04 51°23.278 2°52.165 2.1 12.3 1 21.6
2009-07-14 07:45:10 51°23.298 2°52.165 1.5 12.3 -999 20.9
2009-07-14 07:45:14 51°23.312 2°52.165 1.2 12.3 -999 19.8
2009-07-14 07:45:20 51°23.332 2°52.165 1.1 12.3 -999 20.5
2009-07-14 07:45:25 51°23.35 2°52.165 1 12.3 -999 20.6
2009-07-14 07:45:30 51°23.367 2°52.166 0.9 12.4 1 20.3
2009-07-14 07:45:35 51°23.384 2°52.166 1.5 12.3 -999 20
2009-07-14 07:45:40 51°23.401 2°52.166 1.8 12.3 1 19.9
2009-07-14 07:45:45 51°23.418 2°52.166 2.2 12.3 -999 18.3
2009-07-14 07:45:50 51°23.435 2°52.166 1.8 12.3 -999 18.8
2009-07-14 07:45:55 51°23.452 2°52.166 1.8 12.3 -999 18.5
2009-07-14 07:46:00 51°23.469 2°52.166 1.8 12.3 -999 17.6
2009-07-14 07:46:05 51°23.486 2°52.166 1.6 12.3 -999 15.4
2009-07-14 07:46:10 51°23.503 2°52.167 1.9 12.2 -999 16.9
2009-07-14 07:46:14 51°23.517 2°52.167 2.1 12.3 1 17.2
2009-07-14 07:46:20 51°23.537 2°52.167 1.5 12.3 359 17.7
2009-07-14 07:46:25 51°23.554 2°52.167 0.9 12.3 -999 18
2009-07-14 07:46:30 51°23.571 2°52.166 1.1 12.2 358 16.6
2009-07-14 07:46:34 51°23.585 2°52.165 0.9 12.2 358 16.3
2009-07-14 07:46:40 51°23.605 2°52.165 0.8 12.2 359 16.8
2009-07-14 07:46:45 51°23.622 2°52.165 1.3 12.2 -999 16.9
2009-07-14 07:46:50 51°23.639 2°52.165 1.9 12.2 -999 16.8
2009-07-14 07:46:54 51°23.652 2°52.165 2.3 12.2 1 17
2009-07-14 07:46:59 51°23.669 2°52.165 2.8 12.2 1 17.1
2009-07-14 07:47:05 51°23.689 2°52.165 2.8 12.3 -999 17.1
2009-07-14 07:47:10 51°23.706 2°52.165 2.2 12.2 359 17.2
2009-07-14 07:47:14 51°23.72 2°52.165 1.7 12.2 -999 17.5
2009-07-14 07:47:19 51°23.737 2°52.165 1.6 12.2 359 17.3
2009-07-14 07:47:24 51°23.754 2°52.164 0.8 12.1 359 15.3
2009-07-14 07:47:30 51°23.774 2°52.164 0.8 12.2 358 16.7
2009-07-14 07:47:34 51°23.787 2°52.163 0.1 12.2 358 17.6
2009-07-14 07:47:40 51°23.808 2°52.162 0.4 12.2 359 18.1
2009-07-14 07:47:45 51°23.825 2°52.161 0.8 12.2 358 18.2
2009-07-14 07:47:50 51°23.842 2°52.161 0.6 12.2 359 17.1
2009-07-14 07:47:55 51°23.859 2°52.16 1.3 12.2 359 17.9
2009-07-14 07:48:00 51°23.876 2°52.16 1.5 12.3 359 18.2
2009-07-14 07:48:05 51°23.892 2°52.16 1.9 12.2 1 18.5
2009-07-14 07:48:10 51°23.909 2°52.16 2.4 12.2 -999 17.8
2009-07-14 07:48:15 51°23.926 2°52.16 2.4 12.2 -999 16.6
2009-07-14 07:48:20 51°23.943 2°52.16 1.5 12.1 358 17.5
2009-07-14 07:48:25 51°23.96 2°52.159 1.1 12.1 359 18.1
2009-07-14 07:48:30 51°23.976 2°52.158 0.6 12.1 357 18.7
2009-07-14 07:48:34 51°23.99 2°52.157 0.1 12.1 358 19
2009-07-14 07:48:40 51°24.01 2°52.156 0.1 12.1 357 19
2009-07-14 07:48:45 51°24.027 2°52.155 -999 12.1 358 19
2009-07-14 07:48:50 51°24.044 2°52.154 0.1 12.1 357 19.1
2009-07-14 07:48:54 51°24.057 2°52.153 0.2 12.1 358 18.8
2009-07-14 07:49:00 51°24.077 2°52.152 0.4 12.1 358 18.1
2009-07-14 07:49:05 51°24.094 2°52.15 0.2 12.2 357 17.1
2009-07-14 07:49:10 51°24.111 2°52.15 0.1 12.1 358 16.3
2009-07-14 07:49:14 51°24.124 2°52.149 359.7 12.1 357 16.6
2009-07-14 07:49:19 51°24.141 2°52.148 0.2 12.1 359 17.3
2009-07-14 07:49:25 51°24.161 2°52.147 0.3 12.1 357 18.1
2009-07-14 07:49:30 51°24.178 2°52.146 0.1 12.1 358 18.3
2009-07-14 07:49:34 51°24.191 2°52.145 0.5 12.1 358 18.5
2009-07-14 07:49:39 51°24.208 2°52.145 1 12.1 359 18.7
2009-07-14 07:49:44 51°24.225 2°52.144 1.2 12.1 358 18.9
2009-07-14 07:49:50 51°24.245 2°52.143 1.2 12.1 359 19.1
2009-07-14 07:49:54 51°24.258 2°52.143 1.4 12.1 -999 18.8
2009-07-14 07:50:00 51°24.279 2°52.143 2.3 12.2 -999 17.9
2009-07-14 07:50:04 51°24.292 2°52.143 2.3 12.2 -999 16.3
2009-07-14 07:50:10 51°24.313 2°52.143 2.3 12.1 1 17.5
2009-07-14 07:50:15 51°24.329 2°52.143 3 12.2 -999 18.6
2009-07-14 07:50:20 51°24.346 2°52.142 2.3 12.1 359 19
2009-07-14 07:50:25 51°24.363 2°52.142 2 12.1 359 19.5
2009-07-14 07:50:30 51°24.38 2°52.141 1.3 12.1 358 19.5
2009-07-14 07:50:35 51°24.397 2°52.141 1.5 12.1 -999 19.5
2009-07-14 07:50:40 51°24.413 2°52.141 1.8 12 359 19.6
2009-07-14 07:50:45 51°24.43 2°52.14 1.7 12.1 359 19.3
2009-07-14 07:50:50 51°24.447 2°52.14 1.2 12 358 19.9
2009-07-14 07:50:54 51°24.46 2°52.139 0.8 12 358 20.3
2009-07-14 07:51:00 51°24.48 2°52.138 0.5 12 358 20.5
2009-07-14 07:51:05 51°24.497 2°52.137 0.4 12 358 18.6
2009-07-14 07:51:10 51°24.513 2°52.137 1 12 358 18.7
2009-07-14 07:51:14 51°24.526 2°52.136 0.8 12 358 20.2
2009-07-14 07:51:20 51°24.546 2°52.135 1.1 12 359 20.7
2009-07-14 07:51:25 51°24.563 2°52.134 1.6 12 359 21
2009-07-14 07:51:30 51°24.58 2°52.134 2.2 12 -999 21.4
2009-07-14 07:51:34 51°24.593 2°52.134 2.6 12 -999 21.8
2009-07-14 07:51:40 51°24.613 2°52.134 2.9 12.1 -999 22.1
2009-07-14 07:51:45 51°24.63 2°52.134 2.8 12.1 -999 22
2009-07-14 07:51:50 51°24.647 2°52.134 2.5 12 -999 21.8
2009-07-14 07:51:54 51°24.66 2°52.134 2.3 12.1 -999 21.8
2009-07-14 07:52:00 51°24.68 2°52.134 2.3 12.1 -999 22
2009-07-14 07:52:05 51°24.697 2°52.134 2.7 12.1 1 22.1
2009-07-14 07:52:10 51°24.714 2°52.134 2.7 12.1 359 22.1
2009-07-14 07:52:15 51°24.73 2°52.134 2.3 12.1 -999 22.1
2009-07-14 07:52:20 51°24.747 2°52.134 2.3 12 -999 22.3
2009-07-14 07:52:25 51°24.764 2°52.133 1.6 12 359 22.3
2009-07-14 07:52:30 51°24.78 2°52.133 1.6 12.1 359 22.4
2009-07-14 07:52:34 51°24.794 2°52.132 1.5 12.1 359 22.5
2009-07-14 07:52:40 51°24.814 2°52.131 1.5 12.1 359 22.6
2009-07-14 07:52:45 51°24.831 2°52.131 1.7 12.1 359 22.6
2009-07-14 07:52:50 51°24.847 2°52.131 1.9 12.1 -999 22.6
2009-07-14 07:52:55 51°24.864 2°52.131 2.2 12.1 -999 22.6
2009-07-14 07:53:00 51°24.881 2°52.13 2 12.1 359 22.6
2009-07-14 07:53:05 51°24.897 2°52.13 1.9 12.1 359 22.7
2009-07-14 07:53:10 51°24.914 2°52.13 1.9 12.1 359 22.7
2009-07-14 07:53:14 51°24.928 2°52.13 1.8 12.1 359 22.9
2009-07-14 07:53:20 51°24.948 2°52.129 1.5 12.1 359 23.1
2009-07-14 07:53:25 51°24.965 2°52.129 1.5 12.1 359 23.3
2009-07-14 07:53:30 51°24.981 2°52.128 1.5 12.1 359 23.4
2009-07-14 07:53:34 51°24.995 2°52.128 1.5 12.1 359 23.4
2009-07-14 07:53:40 51°25.015 2°52.127 1.3 12.1 359 23.6
2009-07-14 07:53:45 51°25.032 2°52.127 1.4 12.2 359 23.6
2009-07-14 07:53:50 51°25.049 2°52.126 1.2 12.2 359 23.9
2009-07-14 07:53:54 51°25.062 2°52.126 1.5 12.2 359 24.2
2009-07-14 07:54:00 51°25.083 2°52.125 0.9 12.2 358 24.4
2009-07-14 07:54:05 51°25.099 2°52.124 0.6 12.2 359 24.6
2009-07-14 07:54:10 51°25.116 2°52.123 0.6 12.2 358 24.9
2009-07-14 07:54:14 51°25.13 2°52.123 1 12.2 -999 25.1
2009-07-14 07:54:20 51°25.15 2°52.123 1.5 12.2 358 25.2
2009-07-14 07:54:25 51°25.167 2°52.122 0.8 12.2 359 25.5
2009-07-14 07:54:30 51°25.184 2°52.121 0.6 12.2 358 25.6
2009-07-14 07:54:35 51°25.201 2°52.121 1 12.2 -999 25.8
2009-07-14 07:54:40 51°25.218 2°52.121 1.1 12.2 359 25.8
2009-07-14 07:54:44 51°25.231 2°52.12 0.7 12.2 359 25.8
2009-07-14 07:54:50 51°25.252 2°52.121 0.9 12.3 -999 25.8
2009-07-14 07:54:54 51°25.266 2°52.121 1.5 12.3 -999 25.5
2009-07-14 07:55:00 51°25.286 2°52.121 2.1 12.3 1 25.7
2009-07-14 07:55:05 51°25.303 2°52.122 2.1 12.3 -999 25.7
2009-07-14 07:55:10 51°25.32 2°52.121 1 12.3 -999 25.7
2009-07-14 07:55:14 51°25.333 2°52.122 0.8 12.3 -999 25.8
2009-07-14 07:55:20 51°25.354 2°52.121 0.6 12.3 359 25.6
2009-07-14 07:55:25 51°25.371 2°52.122 0.4 12.3 -999 25.6
2009-07-14 07:55:30 51°25.388 2°52.121 0.4 12.3 -999 25.9
2009-07-14 07:55:34 51°25.402 2°52.121 359.8 12.3 359 26.1
2009-07-14 07:55:40 51°25.422 2°52.121 359.6 12.3 -999 26.7
2009-07-14 07:55:45 51°25.439 2°52.121 0.3 12.3 -999 27
2009-07-14 07:55:50 51°25.456 2°52.121 0.5 12.3 -999 27.2
2009-07-14 07:55:54 51°25.47 2°52.121 0.1 12.3 -999 27.4
2009-07-14 07:56:00 51°25.49 2°52.122 0.2 12.3 1 27.7
2009-07-14 07:56:05 51°25.507 2°52.122 1 12.3 1 27.5
2009-07-14 07:56:10 51°25.524 2°52.122 0.9 12.3 -999 27.3
2009-07-14 07:56:15 51°25.541 2°52.122 0.3 12.2 -999 27.1
2009-07-14 07:56:20 51°25.558 2°52.122 0.1 12.2 -999 27.3
2009-07-14 07:56:24 51°25.572 2°52.122 -999 12.2 -999 27.3
2009-07-14 07:56:30 51°25.592 2°52.121 359.6 12.2 359 27.5
2009-07-14 07:56:34 51°25.605 2°52.122 359.8 12.2 1 27.3
2009-07-14 07:56:40 51°25.626 2°52.122 0.8 12.2 1 27.3
2009-07-14 07:56:45 51°25.643 2°52.122 1 12.2 -999 27.3
2009-07-14 07:56:50 51°25.66 2°52.123 1.6 12.2 2 27.1
2009-07-14 07:56:55 51°25.677 2°52.123 1.5 12.2 -999 27
2009-07-14 07:57:00 51°25.694 2°52.124 1.8 12.2 2 26.8
2009-07-14 07:57:05 51°25.711 2°52.125 2.2 12.2 1 26.9
2009-07-14 07:57:10 51°25.728 2°52.125 1.5 12.2 -999 26.9
2009-07-14 07:57:15 51°25.744 2°52.125 1 12.2 1 26.7
2009-07-14 07:57:20 51°25.761 2°52.126 1.6 12.2 1 26.4
2009-07-14 07:57:25 51°25.778 2°52.126 1.9 12.2 1 26.3
2009-07-14 07:57:30 51°25.795 2°52.127 2.4 12.1 1 26.2
2009-07-14 07:57:34 51°25.808 2°52.128 2.2 12.2 1 26.2
2009-07-14 07:57:40 51°25.829 2°52.128 2.1 12.1 1 26.2
2009-07-14 07:57:45 51°25.845 2°52.128 1.6 12.2 1 26.3
2009-07-14 07:57:50 51°25.862 2°52.129 2 12.2 1 26.4
2009-07-14 07:57:54 51°25.876 2°52.129 2.1 12.2 1 26.4
2009-07-14 07:58:00 51°25.896 2°52.13 1.9 12.1 1 26.2
2009-07-14 07:58:05 51°25.913 2°52.13 1.8 12.1 1 26.4
2009-07-14 07:58:10 51°25.929 2°52.13 1.9 12.1 -999 26.5
2009-07-14 07:58:14 51°25.943 2°52.129 0.8 12.1 359 26.5
2009-07-14 07:58:20 51°25.963 2°52.13 1 12.1 -999 26.5
2009-07-14 07:58:25 51°25.98 2°52.129 0.8 12.1 359 26.6
2009-07-14 07:58:30 51°25.997 2°52.128 0.2 12.1 359 26.5
2009-07-14 07:58:35 51°26.013 2°52.127 0.1 12.1 357 26.6
2009-07-14 07:58:40 51°26.03 2°52.125 359.4 12 357 26.6
2009-07-14 07:58:44 51°26.043 2°52.125 359.9 12.1 359 26.6
2009-07-14 07:58:50 51°26.064 2°52.123 0.3 12 357 26.7
2009-07-14 07:58:54 51°26.077 2°52.123 0.1 12 358 26.7
2009-07-14 07:59:00 51°26.097 2°52.121 359.8 12 356 26.8
2009-07-14 07:59:04 51°26.11 2°52.121 0.6 12 -999 26.8
2009-07-14 07:59:10 51°26.13 2°52.119 1.3 12 357 26.6
2009-07-14 07:59:15 51°26.147 2°52.119 1 12 359 26.7
2009-07-14 07:59:20 51°26.163 2°52.118 0.9 12 358 26.8
2009-07-14 07:59:25 51°26.18 2°52.117 0.9 12.1 358 26.8
2009-07-14 07:59:30 51°26.197 2°52.116 0.8 12.1 358 26.7
2009-07-14 07:59:35 51°26.214 2°52.115 0.6 12.1 358 26.4
2009-07-14 07:59:40 51°26.23 2°52.114 0.6 12.1 358 26.3
2009-07-14 07:59:45 51°26.247 2°52.113 1 12.1 359 26.2
2009-07-14 07:59:50 51°26.264 2°52.113 1.8 12.1 359 26.2
2009-07-14 07:59:54 51°26.277 2°52.112 1.4 12.1 358 26.2
2009-07-14 08:00:00 51°26.298 2°52.112 1.4 12.1 359 26.1
2009-07-14 08:00:05 51°26.314 2°52.112 1.7 12.2 -999 26.5
2009-07-14 08:00:10 51°26.331 2°52.112 2.4 12.2 -999 26.8
2009-07-14 08:00:14 51°26.345 2°52.112 2.9 12.2 1 27
2009-07-14 08:00:20 51°26.365 2°52.112 2.9 12.2 -999 27.1
2009-07-14 08:00:25 51°26.382 2°52.113 2.9 12.3 1 27.1
2009-07-14 08:00:30 51°26.399 2°52.113 2.8 12.3 359 27.1
2009-07-14 08:00:34 51°26.413 2°52.113 2.2 12.2 -999 27.1
2009-07-14 08:00:40 51°26.433 2°52.112 1.8 12.3 359 26.8
2009-07-14 08:00:45 51°26.45 2°52.112 1.1 12.3 -999 26.2
2009-07-14 08:00:50 51°26.467 2°52.112 1.5 12.3 -999 25.8
2009-07-14 08:00:55 51°26.484 2°52.112 1.6 12.3 -999 25.7
2009-07-14 08:01:00 51°26.501 2°52.112 2.2 12.3 -999 25.7
2009-07-14 08:01:05 51°26.518 2°52.112 2.2 12.3 -999 25.8
2009-07-14 08:01:10 51°26.535 2°52.112 2.2 12.3 -999 25.7
2009-07-14 08:01:14 51°26.549 2°52.112 2 12.3 -999 25.7
2009-07-14 08:01:20 51°26.569 2°52.112 1.8 12.3 -999 25.8
2009-07-14 08:01:25 51°26.587 2°52.112 2 12.3 -999 26.2
2009-07-14 08:01:30 51°26.604 2°52.112 2.2 12.2 359 26.5
2009-07-14 08:01:34 51°26.617 2°52.111 1 12.2 358 26.4
2009-07-14 08:01:40 51°26.637 2°52.11 0.8 12.2 358 28
2009-07-14 08:01:45 51°26.654 2°52.108 0.2 12.2 357 28.1
2009-07-14 08:01:50 51°26.671 2°52.107 0.2 12.2 358 27.9
2009-07-14 08:01:55 51°26.688 2°52.106 0.1 12.2 357 27.6
2009-07-14 08:02:00 51°26.705 2°52.105 359.7 12.2 358 27.8
2009-07-14 08:02:05 51°26.722 2°52.104 0.1 12.1 358 27.5
2009-07-14 08:02:10 51°26.739 2°52.103 -999 12.1 357 27.3
2009-07-14 08:02:14 51°26.752 2°52.101 359.6 12.2 357 27.1
2009-07-14 08:02:20 51°26.772 2°52.099 358.9 12.1 355 26.9
2009-07-14 08:02:25 51°26.789 2°52.098 358.5 12.1 357 27
2009-07-14 08:02:30 51°26.806 2°52.096 359.1 12.1 357 26.9
2009-07-14 08:02:34 51°26.819 2°52.095 359.6 12.1 357 26.4
2009-07-14 08:02:40 51°26.839 2°52.094 359.8 12.1 357 27
2009-07-14 08:02:45 51°26.856 2°52.092 359.7 12.2 357 26.5
2009-07-14 08:02:50 51°26.873 2°52.091 359.4 12.1 356 26.5
2009-07-14 08:02:54 51°26.886 2°52.09 358.6 12.1 356 26.6
2009-07-14 08:03:00 51°26.906 2°52.087 358 12.1 355 26.2
2009-07-14 08:03:05 51°26.923 2°52.086 357.9 12.1 357 25.8
2009-07-14 08:03:10 51°26.94 2°52.084 358.6 12.1 357 25.3
2009-07-14 08:03:14 51°26.953 2°52.083 358.7 12.1 357 24.3
2009-07-14 08:03:20 51°26.973 2°52.082 358.7 12.1 357 23.4
2009-07-14 08:03:25 51°26.99 2°52.08 358.6 12.2 357 25
2009-07-14 08:03:30 51°27.007 2°52.079 359.3 12.1 358 25.2
2009-07-14 08:03:35 51°27.024 2°52.078 359.4 12.1 357 23.6
2009-07-14 08:03:40 51°27.041 2°52.077 359.5 12.1 358 19.4
2009-07-14 08:03:45 51°27.058 2°52.075 359.5 12.2 357 20.5